Main page
METAR-TAF:

METAR-TAF

Airports :

Rouen Airport

Rouen, France

latitude: 49-23N, longitude: 001-11E, elevation: 157 m

Current weather observation

The report was made 21 minutes ago, at 14:00 UTC
Wind 4 kt from variable directions
Temperature 16°C
Humidity 48%
Pressure 1027 hPa
Visibility 10 km or more
no clouds below 1500 m and no cumulonimbus

METAR: LFOP 021400Z AUTO VRB04KT CAVOK 16/05 Q1027 NOSIG

Time: 15:21 (14:21 UTC)

Forecast

The report was made 3 hours and 21 minutes ago, at 11:00 UTC
Forecast valid from 02 at 12 UTC to 03 at 12 UTC
Wind 5 kt from the East/Southeast
Visibility 10 km or more
no clouds below 1500 m and no cumulonimbus
Probability 30% :
Temporary
from 02 at 20 UTC to 03 at 08 UTC
Visibility: 3000 m
mist

TAF: LFOP 021100Z 0212/0312 11005KT CAVOK PROB30 TEMPO 0220/0308 3000 BR

Weather observations and forecasts of more than 4000 airports (METAR and TAF reports).

The available stations are represented by yellow and red dots on the map.

Hover mouse over dot to see the name of the station.

Then click to see weather observations and forecasts.

To change the map : click on the green buttons with a black cross to zoom in, on the green button with a dash to zoom out, or on the green arrows for adjacent maps.


METAR-TAF: